createdAt,value
2018-12-27T00:04:39.711Z,98.40
2018-12-27T00:09:46.459Z,98.40
2018-12-27T00:14:52.510Z,98.10
2018-12-27T00:19:58.715Z,97.90
2018-12-27T00:25:04.948Z,98.00
2018-12-27T00:30:11.026Z,97.90
2018-12-27T00:35:17.097Z,97.90
2018-12-27T00:40:23.322Z,97.80
2018-12-27T00:45:29.564Z,97.60
2018-12-27T00:50:35.797Z,97.60
2018-12-27T00:55:42.004Z,97.30
2018-12-27T01:00:48.479Z,97.10
2018-12-27T01:05:54.657Z,97.00
2018-12-27T01:11:01.104Z,97.20
2018-12-27T01:16:08.039Z,97.00
2018-12-27T01:21:14.325Z,97.30
2018-12-27T01:26:20.487Z,97.30
2018-12-27T01:31:27.715Z,97.20
2018-12-27T01:36:33.905Z,97.00
2018-12-27T01:41:40.729Z,97.00
2018-12-27T01:46:47.158Z,97.00
2018-12-27T01:51:53.478Z,96.90
2018-12-27T01:56:59.701Z,97.10
2018-12-27T02:02:06.080Z,96.80
2018-12-27T02:07:12.427Z,96.90
2018-12-27T02:12:18.768Z,96.90
2018-12-27T02:17:25.017Z,96.90
2018-12-27T02:22:31.204Z,96.90
2018-12-27T02:27:38.610Z,96.90
2018-12-27T02:32:44.801Z,97.00
2018-12-27T02:37:50.964Z,97.30
2018-12-27T02:42:57.728Z,97.40
2018-12-27T02:48:03.909Z,97.70
2018-12-27T02:53:09.994Z,97.70
2018-12-27T02:58:16.308Z,97.90
2018-12-27T03:03:22.579Z,97.80
2018-12-27T03:08:28.893Z,98.10
2018-12-27T03:13:35.010Z,98.00
2018-12-27T03:18:41.146Z,97.90
2018-12-27T03:23:47.265Z,97.90
2018-12-27T03:28:53.465Z,97.70
2018-12-27T03:33:59.756Z,98.00
2018-12-27T03:39:07.325Z,97.90
2018-12-27T03:44:13.602Z,97.80
2018-12-27T03:49:19.844Z,98.10
2018-12-27T03:54:26.355Z,98.50
2018-12-27T03:59:32.497Z,98.40
2018-12-27T04:04:38.756Z,98.60
2018-12-27T04:09:44.923Z,98.20
2018-12-27T04:14:51.124Z,98.40
2018-12-27T04:19:57.165Z,98.50
2018-12-27T04:25:03.451Z,98.10
2018-12-27T04:30:09.521Z,98.30
2018-12-27T04:35:15.920Z,98.40
2018-12-27T04:40:22.005Z,98.20
2018-12-27T04:45:28.154Z,98.30
2018-12-27T04:50:34.241Z,98.10
2018-12-27T04:55:40.303Z,98.30
2018-12-27T05:00:46.417Z,98.20
2018-12-27T05:05:52.645Z,98.10
2018-12-27T05:10:58.783Z,97.80
2018-12-27T05:16:04.808Z,97.90
2018-12-27T05:21:10.877Z,98.00
2018-12-27T05:26:17.053Z,97.90
2018-12-27T05:31:23.143Z,97.40
2018-12-27T05:36:29.229Z,97.10
2018-12-27T05:41:35.303Z,97.30
2018-12-27T05:46:41.452Z,97.30
2018-12-27T05:51:47.646Z,97.30
2018-12-27T05:56:53.728Z,97.30
2018-12-27T06:01:59.922Z,97.20
2018-12-27T06:07:06.138Z,97.10
2018-12-27T06:12:12.317Z,97.20
2018-12-27T06:17:18.457Z,97.20
2018-12-27T06:22:24.526Z,97.20
2018-12-27T06:27:30.588Z,97.40
2018-12-27T06:32:36.730Z,97.60
2018-12-27T06:37:42.920Z,97.50
2018-12-27T06:42:49.029Z,97.10
2018-12-27T06:47:55.085Z,97.40
2018-12-27T06:53:01.121Z,97.40
2018-12-27T06:58:07.313Z,97.60
2018-12-27T07:03:13.328Z,97.50
2018-12-27T07:08:19.435Z,97.50
2018-12-27T07:13:25.691Z,97.60
2018-12-27T07:18:31.813Z,97.60
2018-12-27T07:23:37.933Z,97.40
2018-12-27T07:28:43.978Z,97.30
2018-12-27T07:33:50.081Z,97.00
2018-12-27T07:38:56.199Z,97.10
2018-12-27T07:44:02.384Z,97.00
2018-12-27T07:49:08.361Z,97.10
2018-12-27T07:54:14.389Z,97.00
2018-12-27T07:59:20.498Z,96.50
2018-12-27T08:04:27.633Z,96.50
2018-12-27T08:09:33.904Z,96.50
2018-12-27T08:14:40.070Z,96.50
2018-12-27T08:19:46.248Z,96.50
2018-12-27T08:24:52.375Z,96.60
2018-12-27T08:29:58.544Z,96.40
2018-12-27T08:35:11.232Z,96.40
2018-12-27T08:40:12.379Z,95.70
2018-12-27T08:45:19.013Z,95.50
2018-12-27T08:50:25.351Z,95.70
2018-12-27T08:55:31.349Z,95.50
2018-12-27T09:00:38.194Z,94.90
2018-12-27T09:05:44.416Z,95.40
2018-12-27T09:10:50.588Z,94.40
2018-12-27T09:15:57.127Z,93.90
2018-12-27T09:21:03.980Z,93.60
2018-12-27T09:26:10.186Z,93.20
2018-12-27T09:31:16.628Z,92.70
2018-12-27T09:36:22.687Z,92.70
2018-12-27T09:41:28.856Z,92.90
2018-12-27T09:46:35.198Z,92.80
2018-12-27T09:51:41.501Z,92.90
2018-12-27T09:56:47.738Z,92.40
2018-12-27T10:01:53.954Z,92.40
2018-12-27T10:07:19.047Z,92.80
2018-12-27T10:12:25.273Z,92.00
2018-12-27T10:17:31.620Z,91.50
2018-12-27T10:22:37.852Z,91.00
2018-12-27T10:27:44.120Z,90.70
2018-12-27T10:32:50.287Z,90.70
2018-12-27T10:37:56.425Z,90.40
2018-12-27T10:43:02.733Z,90.30
2018-12-27T10:48:08.908Z,90.10
2018-12-27T10:53:14.996Z,89.80
2018-12-27T10:58:21.184Z,88.60
2018-12-27T11:03:30.736Z,89.50
2018-12-27T11:08:35.691Z,90.10
2018-12-27T11:13:41.831Z,90.80
2018-12-27T11:18:47.945Z,90.50
2018-12-27T11:23:54.144Z,90.10
2018-12-27T11:29:00.401Z,90.30
2018-12-27T11:34:06.546Z,90.60
2018-12-27T11:39:12.992Z,90.30
2018-12-27T11:44:19.525Z,90.80
2018-12-27T11:49:25.844Z,90.00
2018-12-27T11:54:31.995Z,88.80
2018-12-27T11:59:38.222Z,88.60
2018-12-27T12:04:44.412Z,86.90
2018-12-27T12:09:50.781Z,88.00
2018-12-27T12:14:57.300Z,88.60
2018-12-27T12:20:03.994Z,89.60
2018-12-27T12:25:10.554Z,89.90
2018-12-27T12:30:16.907Z,88.80
2018-12-27T12:35:23.524Z,89.40
2018-12-27T12:40:29.840Z,89.30
2018-12-27T12:45:36.086Z,87.60
2018-12-27T12:50:42.436Z,88.40
2018-12-27T12:55:48.776Z,86.60
2018-12-27T13:00:55.177Z,85.70
2018-12-27T13:06:02.174Z,87.60
2018-12-27T13:11:08.320Z,88.70
2018-12-27T13:16:14.282Z,88.00
2018-12-27T13:21:20.284Z,89.20
2018-12-27T13:26:26.448Z,89.60
2018-12-27T13:31:32.597Z,90.40
2018-12-27T13:36:38.770Z,90.70
2018-12-27T13:41:44.879Z,90.80
2018-12-27T13:46:50.838Z,90.90
2018-12-27T13:51:56.971Z,91.30
2018-12-27T13:57:03.210Z,91.00
2018-12-27T14:02:09.372Z,91.00
2018-12-27T14:07:15.771Z,91.00
2018-12-27T14:12:21.928Z,91.00
2018-12-27T14:17:28.117Z,91.10
2018-12-27T14:22:34.628Z,91.40
2018-12-27T14:27:40.680Z,91.70
2018-12-27T14:32:46.739Z,91.90
2018-12-27T14:37:53.180Z,92.10
2018-12-27T14:42:59.263Z,92.20
2018-12-27T14:48:05.389Z,92.40
2018-12-27T14:53:11.547Z,92.80
2018-12-27T14:58:17.635Z,93.00
2018-12-27T15:03:23.760Z,93.30
2018-12-27T15:08:30.027Z,93.50
2018-12-27T15:13:36.170Z,93.60
2018-12-27T15:18:42.226Z,93.80
2018-12-27T15:23:48.595Z,93.90
2018-12-27T15:28:55.237Z,94.30
2018-12-27T15:34:01.478Z,94.40
2018-12-27T15:39:08.378Z,94.30
2018-12-27T15:44:14.543Z,94.50
2018-12-27T15:49:20.748Z,94.60
2018-12-27T15:54:26.861Z,94.70
2018-12-27T15:59:33.041Z,94.70
2018-12-27T16:04:39.258Z,94.80
2018-12-27T16:09:45.425Z,94.80
2018-12-27T16:14:51.543Z,94.80
2018-12-27T16:19:57.661Z,94.50
2018-12-27T16:25:03.671Z,94.40
2018-12-27T16:30:09.929Z,94.70
2018-12-27T16:35:16.094Z,94.90
2018-12-27T16:40:22.219Z,94.80
2018-12-27T16:45:28.297Z,94.40
2018-12-27T16:50:34.370Z,94.80
2018-12-27T16:55:40.499Z,94.70
2018-12-27T17:00:46.666Z,94.70
2018-12-27T17:05:52.771Z,94.70
2018-12-27T17:10:58.836Z,94.50
2018-12-27T17:16:05.109Z,94.30
2018-12-27T17:21:11.753Z,94.00
2018-12-27T17:26:17.913Z,93.50
2018-12-27T17:31:24.048Z,93.30
2018-12-27T17:36:30.340Z,93.10
2018-12-27T17:41:36.519Z,93.10
2018-12-27T17:46:42.698Z,92.20
2018-12-27T17:51:48.879Z,92.30
2018-12-27T17:56:55.147Z,91.90
2018-12-27T18:02:01.483Z,92.20
2018-12-27T18:07:07.587Z,92.10
2018-12-27T18:12:13.886Z,92.20
2018-12-27T18:17:19.988Z,91.70
2018-12-27T18:22:26.129Z,90.90
2018-12-27T18:27:32.310Z,90.90
2018-12-27T18:32:38.408Z,91.00
2018-12-27T18:37:44.564Z,91.10
2018-12-27T18:42:50.530Z,91.40
2018-12-27T18:47:57.045Z,91.70
2018-12-27T18:53:03.258Z,90.70
2018-12-27T18:58:10.159Z,91.30
2018-12-27T19:03:16.526Z,91.00
2018-12-27T19:08:22.585Z,91.00
2018-12-27T19:13:28.716Z,90.60
2018-12-27T19:18:39.936Z,90.60
2018-12-27T19:23:46.128Z,90.70
2018-12-27T19:28:52.233Z,91.20
2018-12-27T19:33:58.256Z,91.20
2018-12-27T19:39:04.940Z,91.00
2018-12-27T19:44:10.998Z,90.80
2018-12-27T19:49:17.071Z,90.70
2018-12-27T19:54:23.380Z,91.60
2018-12-27T19:59:29.501Z,91.70
2018-12-27T20:04:35.616Z,91.70
2018-12-27T20:09:41.762Z,91.90
2018-12-27T20:14:47.859Z,91.80
2018-12-27T20:19:53.933Z,92.00
2018-12-27T20:25:00.300Z,92.10
2018-12-27T20:30:07.295Z,92.10
2018-12-27T20:35:13.485Z,92.50
2018-12-27T20:40:19.582Z,92.60
2018-12-27T20:45:25.619Z,92.80
2018-12-27T20:50:31.865Z,93.10
2018-12-27T20:55:38.061Z,93.10
2018-12-27T21:00:44.183Z,93.10
2018-12-27T21:05:50.226Z,93.30
2018-12-27T21:10:56.400Z,93.20
2018-12-27T21:16:02.659Z,92.90
2018-12-27T21:21:08.870Z,93.40
2018-12-27T21:26:15.043Z,93.40
2018-12-27T21:31:21.211Z,93.70
2018-12-27T21:36:27.387Z,93.40
2018-12-27T21:41:33.482Z,93.50
2018-12-27T21:46:39.733Z,93.50
2018-12-27T21:51:45.819Z,93.50
2018-12-27T21:56:51.884Z,93.50
2018-12-27T22:01:57.946Z,93.00
2018-12-27T22:07:04.132Z,93.40
2018-12-27T22:12:10.080Z,93.10
2018-12-27T22:17:17.038Z,93.20
2018-12-27T22:22:23.158Z,92.80
2018-12-27T22:27:29.263Z,92.40
2018-12-27T22:32:35.336Z,92.90
2018-12-27T22:37:41.391Z,92.70
2018-12-27T22:42:47.561Z,92.30
2018-12-27T22:47:53.666Z,91.50
2018-12-27T22:52:59.761Z,91.70
2018-12-27T22:58:05.808Z,91.80
2018-12-27T23:03:11.976Z,91.70
2018-12-27T23:08:18.027Z,92.00
2018-12-27T23:13:24.055Z,92.40
2018-12-27T23:18:30.408Z,92.20
2018-12-27T23:23:36.589Z,91.50
2018-12-27T23:28:42.634Z,91.30
2018-12-27T23:33:48.641Z,91.70
2018-12-27T23:38:54.797Z,91.30
2018-12-27T23:44:00.926Z,91.80
2018-12-27T23:49:06.940Z,92.00
2018-12-27T23:54:13.025Z,91.90
2018-12-27T23:59:19.305Z,91.60
